createdAt,value
2018-07-03T00:01:03.649Z,12.35
2018-07-03T00:03:34.089Z,12.31
2018-07-03T00:06:04.705Z,12.29
2018-07-03T00:08:34.049Z,12.24
2018-07-03T00:11:03.257Z,12.16
2018-07-03T00:13:33.036Z,12.15
2018-07-03T00:16:03.314Z,12.14
2018-07-03T00:18:33.269Z,12.09
2018-07-03T00:21:03.002Z,12.03
2018-07-03T00:23:32.822Z,12.13
2018-07-03T00:26:03.210Z,12.11
2018-07-03T00:28:34.057Z,12.03
2018-07-03T00:31:04.741Z,11.92
2018-07-03T00:33:33.758Z,11.93
2018-07-03T00:36:03.167Z,11.89
2018-07-03T00:38:33.377Z,11.89
2018-07-03T00:41:03.073Z,11.89
2018-07-03T00:43:33.348Z,11.85
2018-07-03T00:46:03.705Z,11.96
2018-07-03T00:48:34.073Z,11.99
2018-07-03T00:51:03.609Z,11.98
2018-07-03T00:53:34.237Z,12.09
2018-07-03T00:56:03.610Z,12.14
2018-07-03T00:58:33.944Z,12.11
2018-07-03T01:01:04.590Z,12.20
2018-07-03T01:03:33.921Z,12.13
2018-07-03T01:06:03.885Z,12.03
2018-07-03T01:08:34.761Z,12.06
2018-07-03T01:11:04.145Z,11.93
2018-07-03T01:13:32.997Z,11.88
2018-07-03T01:16:03.296Z,11.80
2018-07-03T01:18:33.693Z,11.73
2018-07-03T01:21:03.221Z,11.53
2018-07-03T01:23:33.698Z,11.51
2018-07-03T01:26:05.110Z,11.44
2018-07-03T01:28:33.437Z,11.38
2018-07-03T01:31:03.329Z,11.27
2018-07-03T01:33:33.671Z,11.15
2018-07-03T01:36:03.309Z,11.11
2018-07-03T01:38:32.718Z,11.12
2018-07-03T01:41:02.976Z,11.02
2018-07-03T01:43:33.383Z,10.97
2018-07-03T01:46:03.918Z,10.91
2018-07-03T01:48:33.448Z,10.86
2018-07-03T01:51:03.361Z,10.93
2018-07-03T01:53:34.270Z,10.90
2018-07-03T01:56:03.265Z,10.88
2018-07-03T01:58:32.985Z,10.84
2018-07-03T02:01:03.137Z,10.77
2018-07-03T02:03:33.401Z,10.77
2018-07-03T02:06:02.829Z,10.69
2018-07-03T02:08:33.064Z,10.61
2018-07-03T02:11:04.054Z,10.57
2018-07-03T02:13:33.516Z,10.55
2018-07-03T02:16:05.689Z,10.49
2018-07-03T02:18:34.037Z,10.46
2018-07-03T02:21:03.511Z,10.43
2018-07-03T02:23:33.438Z,10.39
2018-07-03T02:26:03.253Z,10.40
2018-07-03T02:28:32.368Z,10.41
2018-07-03T02:31:02.085Z,10.38
2018-07-03T02:33:31.741Z,10.41
2018-07-03T02:36:01.569Z,10.41
2018-07-03T02:38:31.908Z,10.43
2018-07-03T02:41:00.474Z,10.53
2018-07-03T02:43:29.452Z,10.55
2018-07-03T02:45:58.037Z,10.64
2018-07-03T02:48:26.585Z,10.54
2018-07-03T02:50:55.140Z,10.51
2018-07-03T02:53:23.742Z,10.45
2018-07-03T02:55:52.306Z,10.38
2018-07-03T02:58:20.878Z,10.33
2018-07-03T03:00:49.466Z,10.33
2018-07-03T03:03:18.029Z,10.31
2018-07-03T03:05:46.646Z,10.27
2018-07-03T03:08:15.237Z,10.28
2018-07-03T03:10:43.813Z,10.31
2018-07-03T03:13:12.415Z,10.39
2018-07-03T03:15:41.006Z,10.31
2018-07-03T03:18:09.589Z,10.33
2018-07-03T03:20:38.462Z,10.34
2018-07-03T03:23:07.022Z,10.46
2018-07-03T03:25:35.754Z,10.53
2018-07-03T03:28:04.349Z,10.52
2018-07-03T03:30:33.987Z,10.54
2018-07-03T03:33:03.721Z,10.53
2018-07-03T03:35:33.241Z,10.60
2018-07-03T03:38:03.735Z,10.57
2018-07-03T03:40:32.948Z,10.63
2018-07-03T03:43:03.136Z,10.57
2018-07-03T03:45:33.217Z,10.55
2018-07-03T03:48:03.023Z,10.58
2018-07-03T03:50:33.093Z,10.59
2018-07-03T03:53:03.669Z,10.63
2018-07-03T03:55:33.392Z,10.59
2018-07-03T03:58:03.386Z,10.60
2018-07-03T04:00:33.724Z,10.70
2018-07-03T04:03:02.901Z,10.67
2018-07-03T04:05:33.564Z,10.67
2018-07-03T04:08:04.278Z,10.76
2018-07-03T04:10:33.809Z,10.76
2018-07-03T04:13:03.214Z,10.75
2018-07-03T04:15:33.139Z,10.79
2018-07-03T04:18:04.069Z,10.89
2018-07-03T04:20:33.236Z,11.00
2018-07-03T04:23:03.063Z,11.11
2018-07-03T04:25:33.505Z,11.19
2018-07-03T04:28:03.085Z,11.17
2018-07-03T04:30:32.773Z,11.26
2018-07-03T04:33:02.590Z,11.32
2018-07-03T04:35:32.665Z,11.46
2018-07-03T04:38:03.410Z,11.55
2018-07-03T04:40:32.699Z,11.68
2018-07-03T04:43:02.310Z,11.77
2018-07-03T04:45:31.530Z,11.88
2018-07-03T04:48:00.577Z,11.96
2018-07-03T04:50:29.022Z,12.11
2018-07-03T04:52:57.522Z,12.43
2018-07-03T04:55:25.894Z,12.58
2018-07-03T04:57:54.246Z,12.89
2018-07-03T05:00:22.639Z,13.03
2018-07-03T05:02:51.017Z,13.14
2018-07-03T05:05:31.441Z,13.29
2018-07-03T05:08:00.526Z,13.48
2018-07-03T05:10:29.517Z,13.69
2018-07-03T05:12:57.879Z,13.79
2018-07-03T05:15:26.371Z,13.79
2018-07-03T05:17:54.718Z,14.02
2018-07-03T05:20:23.210Z,14.15
2018-07-03T05:22:51.568Z,14.23
2018-07-03T05:25:19.910Z,14.28
2018-07-03T05:27:48.242Z,14.42
2018-07-03T05:30:16.578Z,14.78
2018-07-03T05:32:44.929Z,14.85
2018-07-03T05:35:13.258Z,15.12
2018-07-03T05:37:41.618Z,15.33
2018-07-03T05:40:09.958Z,15.53
2018-07-03T05:42:38.467Z,15.63
2018-07-03T05:45:06.824Z,15.80
2018-07-03T05:47:35.170Z,15.93
2018-07-03T05:50:03.610Z,16.14
2018-07-03T05:52:33.048Z,16.34
2018-07-03T05:55:03.385Z,16.45
2018-07-03T05:57:33.202Z,16.56
2018-07-03T06:00:03.402Z,16.69
2018-07-03T06:02:33.043Z,16.92
2018-07-03T06:05:03.461Z,17.01
2018-07-03T06:07:32.421Z,17.12
2018-07-03T06:10:02.736Z,17.30
2018-07-03T06:12:32.761Z,17.43
2018-07-03T06:15:03.761Z,17.49
2018-07-03T06:17:33.190Z,17.57
2018-07-03T06:20:04.103Z,17.64
2018-07-03T06:22:33.446Z,17.78
2018-07-03T06:25:02.835Z,17.97
2018-07-03T06:27:32.093Z,17.98
2018-07-03T06:30:01.490Z,18.08
2018-07-03T06:32:30.495Z,18.19
2018-07-03T06:34:59.781Z,18.26
2018-07-03T06:37:28.376Z,18.31
2018-07-03T06:39:57.445Z,18.53
2018-07-03T06:42:25.794Z,18.55
2018-07-03T06:44:54.184Z,18.71
2018-07-03T06:47:22.537Z,18.82
2018-07-03T06:49:51.017Z,18.87
2018-07-03T06:52:19.378Z,18.98
2018-07-03T06:54:49.362Z,19.13
2018-07-03T06:57:17.707Z,19.16
2018-07-03T06:59:46.261Z,19.23
2018-07-03T07:02:14.596Z,19.41
2018-07-03T07:04:42.926Z,19.45
2018-07-03T07:07:11.258Z,19.55
2018-07-03T07:09:39.624Z,19.65
2018-07-03T07:12:08.015Z,19.80
2018-07-03T07:14:36.433Z,19.75
2018-07-03T07:17:04.794Z,19.87
2018-07-03T07:19:33.804Z,19.87
2018-07-03T07:22:02.828Z,19.90
2018-07-03T07:24:32.246Z,20.08
2018-07-03T07:27:02.483Z,20.22
2018-07-03T07:29:32.696Z,20.37
2018-07-03T07:32:03.139Z,20.45
2018-07-03T07:34:33.830Z,20.51
2018-07-03T07:37:03.398Z,20.53
2018-07-03T07:39:33.207Z,20.62
2018-07-03T07:42:02.812Z,20.75
2018-07-03T07:44:32.262Z,20.81
2018-07-03T07:47:00.601Z,20.87
2018-07-03T07:49:29.578Z,21.01
2018-07-03T07:51:57.944Z,21.10
2018-07-03T07:54:26.283Z,21.14
2018-07-03T07:56:54.880Z,21.26
2018-07-03T07:59:23.555Z,21.44
2018-07-03T08:01:51.933Z,21.41
2018-07-03T08:04:20.256Z,21.48
2018-07-03T08:06:48.600Z,21.70
2018-07-03T08:09:16.953Z,21.71
2018-07-03T08:11:45.288Z,21.87
2018-07-03T08:14:13.618Z,21.95
2018-07-03T08:16:41.954Z,22.17
2018-07-03T08:19:10.308Z,22.32
2018-07-03T08:21:38.644Z,22.27
2018-07-03T08:24:06.994Z,22.34
2018-07-03T08:26:35.328Z,22.52
2018-07-03T08:29:03.672Z,22.63
2018-07-03T08:31:33.373Z,22.73
2018-07-03T08:34:02.718Z,22.89
2018-07-03T08:36:32.975Z,22.91
2018-07-03T08:39:02.109Z,22.96
2018-07-03T08:41:33.369Z,22.87
2018-07-03T08:44:04.481Z,22.98
2018-07-03T08:46:34.063Z,23.03
2018-07-03T08:49:03.565Z,23.06
2018-07-03T08:51:33.306Z,23.15
2018-07-03T08:54:03.818Z,23.20
2018-07-03T08:56:33.106Z,23.37
2018-07-03T08:59:02.813Z,23.07
2018-07-03T09:01:32.226Z,23.18
2018-07-03T09:04:01.829Z,23.41
2018-07-03T09:06:32.168Z,23.57
2018-07-03T09:09:02.692Z,23.47
2018-07-03T09:11:32.877Z,23.57
2018-07-03T09:14:02.262Z,23.78
2018-07-03T09:16:31.674Z,23.79
2018-07-03T09:19:01.648Z,23.80
2018-07-03T09:21:31.706Z,23.94
2018-07-03T09:24:00.602Z,24.03
2018-07-03T09:26:29.635Z,24.02
2018-07-03T09:28:57.977Z,24.04
2018-07-03T09:31:27.259Z,24.24
2018-07-03T09:33:55.634Z,24.25
2018-07-03T09:36:24.019Z,24.36
2018-07-03T09:38:52.549Z,24.56
2018-07-03T09:41:20.955Z,24.40
2018-07-03T09:43:49.294Z,24.24
2018-07-03T09:46:17.629Z,24.53
2018-07-03T09:48:46.011Z,24.68
2018-07-03T09:51:14.378Z,24.53
2018-07-03T09:53:42.742Z,24.62
2018-07-03T09:56:11.957Z,24.52
2018-07-03T09:58:40.290Z,24.29
2018-07-03T10:01:14.107Z,24.63
2018-07-03T10:03:42.450Z,24.76
2018-07-03T10:06:10.828Z,24.89
2018-07-03T10:08:39.164Z,24.91
2018-07-03T10:11:07.588Z,24.89
2018-07-03T10:13:35.942Z,24.95
2018-07-03T10:16:04.320Z,25.18
2018-07-03T10:18:33.662Z,25.30
2018-07-03T10:21:03.050Z,25.27
2018-07-03T10:23:34.198Z,25.02
2018-07-03T10:26:03.488Z,25.21
2018-07-03T10:28:32.984Z,25.23
2018-07-03T10:31:02.088Z,25.36
2018-07-03T10:33:32.487Z,25.15
2018-07-03T10:36:01.498Z,25.17
2018-07-03T10:38:32.859Z,24.98
2018-07-03T10:41:02.475Z,25.11
2018-07-03T10:43:31.513Z,25.19
2018-07-03T10:46:02.429Z,25.35
2018-07-03T10:48:32.223Z,25.44
2018-07-03T10:51:01.714Z,25.62
2018-07-03T10:53:31.687Z,25.51
2018-07-03T10:56:01.762Z,25.72
2018-07-03T10:58:32.250Z,25.69
2018-07-03T11:01:01.921Z,25.75
2018-07-03T11:03:32.133Z,25.72
2018-07-03T11:06:02.264Z,25.70
2018-07-03T11:08:31.825Z,25.24
2018-07-03T11:11:01.906Z,25.40
2018-07-03T11:13:31.786Z,25.66
2018-07-03T11:16:01.904Z,25.67
2018-07-03T11:18:31.744Z,25.97
2018-07-03T11:21:01.806Z,26.15
2018-07-03T11:23:30.661Z,26.15
2018-07-03T11:25:59.692Z,26.32
2018-07-03T11:28:28.026Z,26.51
2018-07-03T11:30:56.365Z,26.70
2018-07-03T11:33:24.710Z,26.62
2018-07-03T11:35:53.043Z,26.56
2018-07-03T11:38:21.533Z,26.64
2018-07-03T11:40:49.854Z,26.65
2018-07-03T11:43:18.213Z,26.68
2018-07-03T11:45:46.570Z,26.89
2018-07-03T11:48:14.889Z,26.90
2018-07-03T11:50:43.214Z,26.87
2018-07-03T11:53:11.718Z,27.17
2018-07-03T11:55:40.040Z,27.47
2018-07-03T11:58:08.582Z,27.16
2018-07-03T12:00:36.926Z,27.21
2018-07-03T12:03:05.253Z,27.32
2018-07-03T12:05:33.591Z,27.38
2018-07-03T12:08:02.929Z,27.35
2018-07-03T12:10:32.470Z,27.22
2018-07-03T12:13:01.487Z,27.63
2018-07-03T12:15:42.020Z,27.57
2018-07-03T12:18:16.287Z,27.39
2018-07-03T12:20:44.660Z,27.27
2018-07-03T12:23:13.039Z,27.28
2018-07-03T12:25:42.365Z,27.17
2018-07-03T12:28:10.718Z,27.25
2018-07-03T12:30:39.047Z,27.54
2018-07-03T12:33:08.044Z,27.73
2018-07-03T12:35:37.730Z,27.60
2018-07-03T12:38:06.107Z,27.63
2018-07-03T12:40:34.446Z,27.88
2018-07-03T12:43:03.211Z,28.11
2018-07-03T12:45:32.571Z,27.72
2018-07-03T12:48:01.594Z,27.69
2018-07-03T12:50:31.251Z,27.95
2018-07-03T12:53:00.749Z,28.35
2018-07-03T12:55:29.697Z,28.32
2018-07-03T12:57:58.067Z,28.00
2018-07-03T13:00:26.418Z,27.89
2018-07-03T13:02:54.748Z,28.07
2018-07-03T13:05:23.149Z,28.00
2018-07-03T13:07:51.506Z,28.18
2018-07-03T13:10:20.885Z,28.07
2018-07-03T13:12:49.239Z,28.27
2018-07-03T13:15:17.642Z,28.21
2018-07-03T13:17:45.978Z,28.43
2018-07-03T13:20:14.321Z,28.63
2018-07-03T13:22:42.654Z,28.45
2018-07-03T13:25:12.108Z,28.74
2018-07-03T13:27:40.436Z,28.68
2018-07-03T13:30:10.613Z,28.57
2018-07-03T13:32:39.958Z,28.68
2018-07-03T13:35:10.234Z,28.86
2018-07-03T13:37:39.690Z,29.07
2018-07-03T13:40:09.675Z,28.87
2018-07-03T13:42:38.536Z,28.78
2018-07-03T13:45:07.569Z,28.58
2018-07-03T13:47:36.086Z,28.88
2018-07-03T13:50:04.892Z,28.57
2018-07-03T13:52:33.237Z,28.85
2018-07-03T13:55:02.285Z,28.90
2018-07-03T13:57:31.582Z,28.74
2018-07-03T14:00:00.686Z,28.92
2018-07-03T14:02:29.789Z,29.23
2018-07-03T14:04:58.147Z,29.62
2018-07-03T14:07:26.501Z,29.58
2018-07-03T14:09:54.838Z,29.84
2018-07-03T14:12:23.177Z,30.03
2018-07-03T14:14:51.562Z,30.12
2018-07-03T14:17:19.895Z,30.16
2018-07-03T14:19:48.230Z,29.74
2018-07-03T14:22:16.646Z,29.86
2018-07-03T14:24:44.986Z,29.88
2018-07-03T14:27:13.308Z,29.85
2018-07-03T14:29:41.679Z,30.34
2018-07-03T14:32:11.681Z,30.14
2018-07-03T14:34:40.070Z,30.08
2018-07-03T14:37:08.406Z,29.53
2018-07-03T14:39:36.738Z,29.70
2018-07-03T14:42:06.263Z,30.14
2018-07-03T14:44:36.562Z,29.84
2018-07-03T14:47:06.577Z,29.80
2018-07-03T14:49:35.922Z,30.17
2018-07-03T14:52:11.751Z,30.79
2018-07-03T14:54:41.390Z,31.57
2018-07-03T14:57:10.901Z,32.57
2018-07-03T14:59:39.380Z,33.02
2018-07-03T15:02:09.602Z,31.98
2018-07-03T15:04:38.038Z,32.16
2018-07-03T15:07:06.410Z,32.07
2018-07-03T15:09:35.851Z,32.86
2018-07-03T15:12:04.863Z,32.81
2018-07-03T15:14:34.346Z,32.66
2018-07-03T15:17:03.485Z,32.76
2018-07-03T15:19:38.137Z,33.17
2018-07-03T15:22:07.006Z,33.91
2018-07-03T15:24:36.666Z,33.07
2018-07-03T15:27:05.753Z,33.26
2018-07-03T15:29:35.206Z,33.52
2018-07-03T15:32:05.841Z,33.06
2018-07-03T15:34:34.906Z,32.81
2018-07-03T15:37:04.275Z,32.45
2018-07-03T15:39:33.186Z,32.33
2018-07-03T15:42:03.418Z,33.12
2018-07-03T15:44:43.058Z,32.11
2018-07-03T15:47:11.429Z,32.23
2018-07-03T15:49:39.835Z,31.55
2018-07-03T15:52:08.224Z,31.16
2018-07-03T15:54:36.623Z,30.40
2018-07-03T15:57:05.958Z,30.27
2018-07-03T15:59:35.617Z,29.84
2018-07-03T16:02:05.434Z,29.83
2018-07-03T16:05:11.726Z,29.53
2018-07-03T16:07:48.944Z,29.01
2018-07-03T16:10:17.278Z,28.31
2018-07-03T16:12:45.731Z,28.21
2018-07-03T16:15:14.075Z,28.07
2018-07-03T16:17:42.621Z,27.92
2018-07-03T16:20:17.216Z,27.87
2018-07-03T16:22:45.609Z,27.91
2018-07-03T16:25:13.988Z,27.63
2018-07-03T16:27:42.322Z,27.65
2018-07-03T16:30:10.691Z,27.39
2018-07-03T16:32:39.013Z,27.48
2018-07-03T16:35:07.382Z,27.42
2018-07-03T16:37:35.839Z,27.30
2018-07-03T16:40:04.757Z,27.31
2018-07-03T16:42:33.965Z,27.21
2018-07-03T16:45:03.968Z,27.12
2018-07-03T16:47:34.299Z,27.02
2018-07-03T16:50:03.229Z,27.03
2018-07-03T16:52:31.610Z,26.99
2018-07-03T16:54:59.981Z,26.83
2018-07-03T16:57:29.965Z,26.72
2018-07-03T16:59:58.297Z,26.67
2018-07-03T17:02:26.634Z,26.68
2018-07-03T17:05:15.557Z,26.55
2018-07-03T17:07:44.048Z,26.38
2018-07-03T17:10:12.397Z,26.34
2018-07-03T17:12:40.722Z,26.27
2018-07-03T17:15:09.196Z,26.11
2018-07-03T17:17:37.626Z,26.03
2018-07-03T17:20:06.162Z,25.97
2018-07-03T17:22:35.062Z,25.80
2018-07-03T17:25:04.483Z,25.90
2018-07-03T17:27:33.850Z,25.98
2018-07-03T17:30:02.263Z,25.96
2018-07-03T17:32:31.828Z,25.93
2018-07-03T17:35:00.868Z,25.76
2018-07-03T17:37:30.141Z,25.75
2018-07-03T17:40:10.006Z,25.58
2018-07-03T17:42:49.715Z,25.22
2018-07-03T17:45:39.939Z,24.97
2018-07-03T17:48:09.548Z,24.90
2018-07-03T17:50:37.934Z,25.02
2018-07-03T17:53:06.446Z,25.17
2018-07-03T17:55:36.108Z,24.99
2018-07-03T17:58:05.576Z,24.97
2018-07-03T18:00:34.788Z,24.75
2018-07-03T18:03:04.346Z,24.55
2018-07-03T18:05:32.826Z,24.36
2018-07-03T18:08:02.088Z,24.24
2018-07-03T18:10:30.486Z,24.15
2018-07-03T18:12:58.847Z,24.04
2018-07-03T18:15:27.303Z,23.81
2018-07-03T18:17:55.670Z,23.69
2018-07-03T18:20:27.382Z,23.52
2018-07-03T18:22:55.758Z,23.38
2018-07-03T18:25:24.107Z,23.22
2018-07-03T18:27:52.449Z,23.16
2018-07-03T18:30:20.884Z,23.06
2018-07-03T18:32:49.328Z,22.95
2018-07-03T18:35:17.663Z,22.74
2018-07-03T18:37:46.216Z,22.57
2018-07-03T18:40:14.841Z,22.43
2018-07-03T18:42:43.381Z,22.35
2018-07-03T18:45:11.889Z,22.25
2018-07-03T18:47:40.719Z,22.21
2018-07-03T18:50:09.485Z,22.21
2018-07-03T18:52:37.894Z,22.15
2018-07-03T18:55:06.407Z,22.04
2018-07-03T18:57:35.743Z,21.93
2018-07-03T19:00:05.028Z,21.84
2018-07-03T19:02:34.382Z,21.75
2018-07-03T19:05:03.767Z,21.70
2018-07-03T19:07:34.465Z,21.60
2018-07-03T19:10:04.700Z,21.51
2018-07-03T19:12:33.955Z,21.35
2018-07-03T19:15:04.909Z,21.24
2018-07-03T19:17:34.779Z,21.08
2018-07-03T19:20:04.850Z,20.98
2018-07-03T19:22:35.353Z,20.84
2018-07-03T19:25:05.144Z,20.72
2018-07-03T19:27:34.984Z,20.65
2018-07-03T19:30:04.554Z,20.56
2018-07-03T19:32:34.386Z,20.42
2018-07-03T19:35:04.118Z,20.31
2018-07-03T19:37:35.175Z,20.17
2018-07-03T19:40:03.915Z,20.06
2018-07-03T19:42:33.235Z,20.02
2018-07-03T19:45:01.943Z,19.99
2018-07-03T19:47:31.201Z,19.89
2018-07-03T19:50:01.290Z,19.86
2018-07-03T19:52:32.804Z,19.68
2018-07-03T19:55:02.381Z,19.68
2018-07-03T19:57:32.210Z,19.58
2018-07-03T20:00:01.518Z,19.48
2018-07-03T20:02:31.007Z,19.40
2018-07-03T20:05:00.173Z,19.27
2018-07-03T20:07:28.862Z,19.14
2018-07-03T20:09:57.343Z,18.98
2018-07-03T20:12:25.962Z,18.86
2018-07-03T20:14:54.768Z,18.76
2018-07-03T20:17:23.541Z,18.66
2018-07-03T20:19:52.220Z,18.56
2018-07-03T20:22:20.978Z,18.51
2018-07-03T20:24:49.621Z,18.47
2018-07-03T20:27:18.335Z,18.43
2018-07-03T20:29:46.957Z,18.29
2018-07-03T20:32:15.619Z,18.23
2018-07-03T20:34:45.148Z,18.23
2018-07-03T20:37:14.534Z,18.28
2018-07-03T20:39:43.229Z,18.13
2018-07-03T20:42:12.160Z,18.11
2018-07-03T20:44:40.697Z,18.08
2018-07-03T20:47:09.070Z,18.05
2018-07-03T20:49:37.486Z,18.13
2018-07-03T20:52:05.930Z,18.08
2018-07-03T20:54:35.071Z,17.98
2018-07-03T20:57:05.032Z,17.84
2018-07-03T20:59:36.658Z,17.74
2018-07-03T21:02:07.058Z,17.63
2018-07-03T21:04:36.203Z,17.55
2018-07-03T21:07:07.049Z,17.46
2018-07-03T21:09:35.958Z,17.53
2018-07-03T21:12:05.282Z,17.44
2018-07-03T21:14:34.246Z,17.31
2018-07-03T21:17:06.878Z,17.20
2018-07-03T21:19:40.161Z,17.13
2018-07-03T21:22:08.493Z,17.05
2018-07-03T21:24:37.090Z,17.03
2018-07-03T21:27:06.018Z,17.07
2018-07-03T21:29:35.458Z,17.05
2018-07-03T21:32:03.943Z,17.06
2018-07-03T21:34:32.706Z,17.07
2018-07-03T21:37:02.118Z,17.00
2018-07-03T21:39:31.117Z,16.92
2018-07-03T21:42:00.120Z,16.89
2018-07-03T21:44:28.455Z,16.82
2018-07-03T21:46:56.948Z,16.79
2018-07-03T21:49:25.337Z,16.76
2018-07-03T21:51:53.712Z,16.73
2018-07-03T21:54:22.182Z,16.75
2018-07-03T21:56:50.629Z,16.76
2018-07-03T21:59:18.992Z,16.69
2018-07-03T22:01:47.409Z,16.63
2018-07-03T22:04:15.963Z,16.61
2018-07-03T22:06:44.305Z,16.56
2018-07-03T22:09:13.799Z,16.55
2018-07-03T22:11:42.621Z,16.48
2018-07-03T22:14:11.230Z,16.51
2018-07-03T22:16:39.574Z,16.42
2018-07-03T22:19:08.143Z,16.36
2018-07-03T22:21:37.077Z,16.50
2018-07-03T22:24:05.970Z,16.50
2018-07-03T22:26:35.718Z,16.52
2018-07-03T22:29:05.140Z,16.46
2018-07-03T22:31:35.073Z,16.60
2018-07-03T22:34:04.977Z,16.43
2018-07-03T22:36:33.857Z,16.38
2018-07-03T22:39:04.316Z,16.43
2018-07-03T22:41:33.910Z,16.37
2018-07-03T22:44:04.306Z,16.39
2018-07-03T22:46:34.625Z,16.37
2018-07-03T22:49:04.126Z,16.37
2018-07-03T22:51:32.908Z,16.36
2018-07-03T22:54:03.398Z,16.23
2018-07-03T22:56:32.890Z,16.13
2018-07-03T22:59:01.901Z,16.10
2018-07-03T23:01:31.378Z,16.07
2018-07-03T23:06:32.404Z,16.03
2018-07-03T23:09:01.147Z,15.98
2018-07-03T23:11:30.146Z,16.00
2018-07-03T23:13:58.493Z,15.91
2018-07-03T23:16:26.829Z,15.84
2018-07-03T23:18:55.207Z,15.73
2018-07-03T23:21:23.549Z,15.62
2018-07-03T23:23:51.865Z,15.54
2018-07-03T23:26:20.245Z,15.44
2018-07-03T23:28:48.581Z,15.29
2018-07-03T23:31:16.963Z,15.34
2018-07-03T23:33:45.294Z,15.29
2018-07-03T23:36:13.649Z,15.17
2018-07-03T23:38:41.986Z,15.22
2018-07-03T23:41:10.358Z,15.19
2018-07-03T23:43:38.698Z,15.14
2018-07-03T23:46:05.972Z,15.14
2018-07-03T23:48:45.557Z,15.12
2018-07-03T23:51:25.121Z,15.11
2018-07-03T23:54:04.767Z,15.04
2018-07-03T23:56:44.564Z,15.00
2018-07-03T23:59:24.298Z,14.96
